Time;durP1;ratioP1;P1;durP2;ratioP2;P2;SDS_P1;SDS_P2;PMS_P1;PMS_P2;Temp;Humidity;BMP_temperature;BMP_pressure;BME280_temperature;BME280_humidity;BME280_pressure;Samples;Min_cycle;Max_cycle;Signal;HPM_P1;HPM_P2
2022/09/16 11:49:15;;;;;;;9.73;3.00;;;;;;;;;;6195139;22;20223;-80
2022/09/16 15:50:14;;;;;;;7.95;5.50;;;;;;;;;;6232258;22;20047;-76
2022/09/16 15:53:09;;;;;;;11.77;6.20;;;;;;;;;;6278952;22;20012;-76
2022/09/16 15:55:41;;;;;;;9.60;6.57;;;;;;;;;;6265912;22;20365;-77
2022/09/16 15:58:17;;;;;;;10.45;6.35;;;;;;;;;;6248082;23;20030;-77
2022/09/16 16:00:59;;;;;;;8.18;6.47;;;;;;;;;;6248319;23;20030;-77
2022/09/16 16:03:28;;;;;;;10.90;6.20;;;;;;;;;;6247839;23;20000;-77
2022/09/16 16:05:53;;;;;;;8.30;5.30;;;;;;;;;;6247886;22;20415;-77
2022/09/16 16:08:48;;;;;;;9.20;5.75;;;;;;;;;;6247898;23;20027;-76
2022/09/16 16:11:17;;;;;;;12.30;5.97;;;;;;;;;;6248206;23;20031;-78
2022/09/16 16:13:42;;;;;;;8.68;6.40;;;;;;;;;;6248253;23;20086;-76
2022/09/16 16:16:09;;;;;;;7.95;5.88;;;;;;;;;;6248066;22;20039;-77
2022/09/16 16:18:35;;;;;;;10.65;6.30;;;;;;;;;;6248157;23;20004;-77
2022/09/16 16:21:06;;;;;;;7.75;5.28;;;;;;;;;;6248111;23;20007;-78
2022/09/16 16:23:32;;;;;;;8.40;6.00;;;;;;;;;;6248157;23;20000;-80
2022/09/16 16:25:58;;;;;;;7.40;5.47;;;;;;;;;;6248624;22;20005;-80
2022/09/16 16:28:25;;;;;;;9.65;5.40;;;;;;;;;;6247854;23;20050;-85
2022/09/16 16:30:51;;;;;;;9.20;6.03;;;;;;;;;;6248052;23;20331;-78
2022/09/16 16:33:16;;;;;;;9.68;6.13;;;;;;;;;;6248100;23;20004;-81
2022/09/16 16:35:42;;;;;;;9.30;6.13;;;;;;;;;;6249518;22;20011;-81
2022/09/16 16:38:07;;;;;;;10.10;6.00;;;;;;;;;;6246780;23;20111;-82
2022/09/16 16:40:33;;;;;;;6.72;4.97;;;;;;;;;;6246074;23;20032;-80
2022/09/16 16:42:58;;;;;;;10.57;5.57;;;;;;;;;;6246706;23;20018;-79
2022/09/16 16:45:24;;;;;;;6.95;5.13;;;;;;;;;;6247428;22;20062;-79
2022/09/16 16:47:50;;;;;;;7.68;4.88;;;;;;;;;;6247767;23;20477;-79
2022/09/16 16:50:16;;;;;;;8.95;4.93;;;;;;;;;;6247438;23;20009;-79
2022/09/16 16:52:42;;;;;;;6.28;4.38;;;;;;;;;;6247643;23;20016;-82
2022/09/16 16:55:08;;;;;;;8.63;5.20;;;;;;;;;;6247787;22;20015;-81
2022/09/16 16:57:33;;;;;;;8.05;4.88;;;;;;;;;;6251960;23;20454;-82
2022/09/16 16:59:59;;;;;;;10.45;4.95;;;;;;;;;;6247648;23;20004;-79
2022/09/16 17:02:25;;;;;;;8.88;4.93;;;;;;;;;;6247621;23;20009;-80
2022/09/16 17:04:50;;;;;;;8.13;4.63;;;;;;;;;;6247398;23;20407;-85
2022/09/16 17:07:16;;;;;;;9.18;5.20;;;;;;;;;;6247324;22;20004;-83
2022/09/16 17:09:41;;;;;;;6.63;4.57;;;;;;;;;;6247521;23;20054;-82
2022/09/16 17:12:08;;;;;;;6.97;3.25;;;;;;;;;;6247356;23;20297;-80
2022/09/16 17:14:33;;;;;;;8.57;3.25;;;;;;;;;;6220146;23;20008;-81
2022/09/16 17:17:01;;;;;;;4.53;2.90;;;;;;;;;;6247202;22;20004;-88
2022/09/16 17:19:27;;;;;;;5.82;3.10;;;;;;;;;;6247193;23;20042;-89
2022/09/16 17:21:53;;;;;;;8.30;2.80;;;;;;;;;;6247471;23;20000;-83
2022/09/16 17:24:19;;;;;;;6.18;3.05;;;;;;;;;;6247393;23;20008;-84
2022/09/16 17:26:45;;;;;;;5.07;2.92;;;;;;;;;;6247134;22;20004;-87
2022/09/16 17:29:10;;;;;;;4.28;3.33;;;;;;;;;;6247052;23;20001;-91
2022/09/16 17:31:39;;;;;;;7.28;3.03;;;;;;;;;;6247951;23;20058;-87
2022/09/16 17:34:08;;;;;;;6.07;3.13;;;;;;;;;;6247772;23;20008;-88
2022/09/16 17:36:37;;;;;;;4.43;2.47;;;;;;;;;;6246986;22;20335;-90
2022/09/16 17:39:22;;;;;;;6.05;2.65;;;;;;;;;;6247180;23;20449;-83
2022/09/16 17:41:49;;;;;;;6.78;2.88;;;;;;;;;;6246349;23;20295;-80
2022/09/16 17:44:16;;;;;;;4.75;2.90;;;;;;;;;;6220491;23;20378;-87
2022/09/16 17:46:43;;;;;;;5.30;3.08;;;;;;;;;;6246700;22;20004;-80
2022/09/16 17:49:20;;;;;;;4.40;3.63;;;;;;;;;;6246578;23;20000;-80
2022/09/16 17:51:46;;;;;;;4.97;2.97;;;;;;;;;;6246496;23;20015;-80
2022/09/16 17:54:12;;;;;;;6.65;3.00;;;;;;;;;;6247118;23;20008;-81
2022/09/16 17:56:38;;;;;;;6.25;3.65;;;;;;;;;;6247074;22;20366;-81
2022/09/16 17:59:04;;;;;;;4.68;3.00;;;;;;;;;;6247323;23;20007;-80
2022/09/16 18:01:30;;;;;;;3.92;3.17;;;;;;;;;;6247168;23;20007;-79
2022/09/16 18:03:56;;;;;;;5.40;3.03;;;;;;;;;;6246782;23;20000;-80
2022/09/16 18:06:25;;;;;;;6.65;3.33;;;;;;;;;;6246654;22;20004;-78
2022/09/16 18:08:51;;;;;;;3.30;2.90;;;;;;;;;;6246574;23;20028;-78
2022/09/16 18:11:19;;;;;;;4.72;3.80;;;;;;;;;;6246597;23;20000;-79
2022/09/16 18:13:45;;;;;;;8.63;4.18;;;;;;;;;;6246604;23;20011;-80
2022/09/16 18:16:13;;;;;;;6.32;3.85;;;;;;;;;;6246631;22;20407;-80
2022/09/16 18:18:40;;;;;;;4.97;3.17;;;;;;;;;;6246774;23;20083;-79
2022/09/16 18:21:08;;;;;;;7.05;3.03;;;;;;;;;;6246404;23;20004;-82
2022/09/16 18:23:34;;;;;;;6.72;3.00;;;;;;;;;;6246561;23;20378;-82
2022/09/16 18:26:07;;;;;;;4.88;3.42;;;;;;;;;;6247117;22;20378;-88
2022/09/16 18:28:37;;;;;;;6.82;3.10;;;;;;;;;;6247563;23;20058;-87
2022/09/16 18:31:05;;;;;;;4.70;3.30;;;;;;;;;;6219858;23;20011;-82
2022/09/16 18:33:31;;;;;;;6.40;3.30;;;;;;;;;;6247534;23;20004;-82
2022/09/16 18:36:05;;;;;;;8.25;3.58;;;;;;;;;;6246877;22;20007;-81
2022/09/16 18:38:33;;;;;;;4.93;3.95;;;;;;;;;;6246715;23;20004;-82
2022/09/16 18:41:07;;;;;;;3.95;3.10;;;;;;;;;;6219700;23;20028;-82
2022/09/16 18:43:37;;;;;;;6.57;3.58;;;;;;;;;;6247207;23;20008;-83
2022/09/16 18:46:11;;;;;;;3.85;3.17;;;;;;;;;;6246844;22;20008;-82
2022/09/16 18:48:37;;;;;;;4.85;3.38;;;;;;;;;;6246890;23;20419;-87
2022/09/16 18:51:03;;;;;;;4.65;2.95;;;;;;;;;;6246263;23;20035;-85
2022/09/16 18:53:30;;;;;;;6.97;3.53;;;;;;;;;;6246484;23;20065;-82
2022/09/16 18:55:56;;;;;;;5.28;2.90;;;;;;;;;;6246397;22;20007;-80
2022/09/16 18:58:21;;;;;;;5.20;3.80;;;;;;;;;;6246104;23;20404;-80
2022/09/16 19:00:47;;;;;;;6.43;3.40;;;;;;;;;;6246671;23;20319;-81
2022/09/16 19:03:17;;;;;;;4.25;3.80;;;;;;;;;;6246659;23;20442;-80
2022/09/16 19:05:42;;;;;;;;;;;;;;;;;;6247116;22;20438;-80
2022/09/16 19:08:08;;;;;;;3.58;3.17;;;;;;;;;;6246402;23;19908;-80
2022/09/16 19:10:34;;;;;;;5.15;4.00;;;;;;;;;;6246452;23;20007;-81
2022/09/16 19:13:00;;;;;;;8.07;3.55;;;;;;;;;;6246897;23;20004;-81
2022/09/16 19:15:27;;;;;;;7.68;3.58;;;;;;;;;;6246337;22;20415;-80
2022/09/16 19:17:54;;;;;;;6.10;3.45;;;;;;;;;;6246443;23;20031;-80
2022/09/16 19:20:19;;;;;;;5.68;3.28;;;;;;;;;;6219680;23;20517;-81
2022/09/16 19:22:44;;;;;;;4.95;3.20;;;;;;;;;;6247191;23;20083;-92
2022/09/16 19:25:10;;;;;;;4.78;2.78;;;;;;;;;;6220061;22;20008;-89
2022/09/16 19:27:37;;;;;;;6.32;3.08;;;;;;;;;;6247483;23;20000;-95
2022/09/16 19:30:03;;;;;;;3.33;2.70;;;;;;;;;;6220238;23;20004;-90
2022/09/16 19:32:28;;;;;;;6.75;3.38;;;;;;;;;;6220759;23;20030;-88
2022/09/16 19:34:53;;;;;;;3.90;2.92;;;;;;;;;;6249399;22;20053;-91
2022/09/16 19:37:19;;;;;;;5.60;3.38;;;;;;;;;;6220993;23;20012;-83
2022/09/16 19:39:45;;;;;;;4.57;3.20;;;;;;;;;;6246359;23;20000;-79
2022/09/16 19:42:10;;;;;;;4.93;3.03;;;;;;;;;;6219703;23;20008;-79
2022/09/16 19:44:36;;;;;;;5.18;2.97;;;;;;;;;;6246155;23;20004;-79
2022/09/16 19:47:02;;;;;;;3.63;3.20;;;;;;;;;;6246322;22;20008;-80
2022/09/16 19:49:27;;;;;;;3.55;3.00;;;;;;;;;;6246469;23;20013;-80
2022/09/16 19:51:53;;;;;;;4.68;3.60;;;;;;;;;;6245848;23;20000;-79
2022/09/16 19:54:19;;;;;;;5.68;3.63;;;;;;;;;;6246153;23;20370;-79
2022/09/16 19:56:45;;;;;;;3.58;3.28;;;;;;;;;;6246486;22;20011;-86
2022/09/16 19:59:10;;;;;;;5.75;3.70;;;;;;;;;;6219491;23;20379;-80
2022/09/16 20:01:36;;;;;;;7.55;3.38;;;;;;;;;;6246229;23;20039;-85
2022/09/16 20:04:07;;;;;;;3.72;3.03;;;;;;;;;;6219702;23;20008;-80
2022/09/16 20:06:35;;;;;;;4.43;3.70;;;;;;;;;;6246125;22;20381;-80
2022/09/16 20:09:02;;;;;;;4.15;3.42;;;;;;;;;;6247006;23;20031;-78
2022/09/16 20:11:30;;;;;;;6.07;4.10;;;;;;;;;;6248014;23;20075;-80
2022/09/16 20:14:04;;;;;;;6.82;3.78;;;;;;;;;;6247964;23;20019;-85
2022/09/16 20:16:39;;;;;;;6.82;3.28;;;;;;;;;;6248083;22;20012;-79
2022/09/16 20:19:07;;;;;;;4.18;3.20;;;;;;;;;;6247915;23;20032;-78
2022/09/16 20:21:33;;;;;;;4.53;3.33;;;;;;;;;;6248139;23;19996;-78
2022/09/16 20:24:00;;;;;;;4.15;3.10;;;;;;;;;;6248264;23;20011;-79
2022/09/16 20:26:25;;;;;;;5.55;4.00;;;;;;;;;;6247863;22;20007;-78
2022/09/16 20:28:53;;;;;;;5.85;3.22;;;;;;;;;;6247823;23;20404;-78
2022/09/16 20:31:21;;;;;;;6.72;3.45;;;;;;;;;;6248105;23;20319;-78
2022/09/16 20:33:47;;;;;;;4.17;3.17;;;;;;;;;;6247765;23;20008;-78
2022/09/16 20:36:15;;;;;;;4.25;3.20;;;;;;;;;;6247833;22;20462;-81
2022/09/16 20:38:41;;;;;;;3.88;3.00;;;;;;;;;;6247959;23;20079;-78
2022/09/16 20:41:30;;;;;;;4.50;3.30;;;;;;;;;;6247961;23;20039;-79
2022/09/16 20:43:56;;;;;;;4.18;3.03;;;;;;;;;;6247927;23;20023;-79
2022/09/16 20:46:30;;;;;;;3.25;2.95;;;;;;;;;;6247520;22;20007;-78
2022/09/16 20:48:58;;;;;;;3.28;2.97;;;;;;;;;;6248123;23;20007;-79
2022/09/16 20:51:26;;;;;;;4.20;3.80;;;;;;;;;;6247673;23;20075;-79
2022/09/16 20:53:52;;;;;;;3.22;2.78;;;;;;;;;;6247443;23;20004;-78
2022/09/16 20:56:18;;;;;;;4.45;3.28;;;;;;;;;;6247518;22;20000;-85
2022/09/16 20:58:44;;;;;;;3.92;2.97;;;;;;;;;;6247698;23;20023;-78
2022/09/16 21:01:11;;;;;;;3.20;2.90;;;;;;;;;;6247640;23;20008;-79
2022/09/16 21:03:38;;;;;;;3.22;2.67;;;;;;;;;;6248014;23;20082;-79
2022/09/16 21:06:06;;;;;;;4.25;3.40;;;;;;;;;;6247453;22;19996;-78
2022/09/16 21:08:34;;;;;;;3.45;3.15;;;;;;;;;;6247623;23;20000;-79
2022/09/16 21:11:16;;;;;;;3.28;2.97;;;;;;;;;;6247607;23;20000;-79
2022/09/16 21:13:44;;;;;;;4.57;3.20;;;;;;;;;;6247553;23;20097;-79
2022/09/16 21:16:14;;;;;;;3.58;3.20;;;;;;;;;;6247631;22;20115;-79
2022/09/16 21:18:41;;;;;;;5.25;3.20;;;;;;;;;;6247641;23;20059;-79
2022/09/16 21:21:16;;;;;;;4.65;2.88;;;;;;;;;;6247100;23;20428;-79
2022/09/16 21:23:45;;;;;;;5.22;2.95;;;;;;;;;;6220398;23;20000;-79
2022/09/16 21:26:27;;;;;;;5.13;3.38;;;;;;;;;;6247409;22;20487;-79
2022/09/16 21:28:56;;;;;;;4.32;3.17;;;;;;;;;;6247418;23;20004;-79
2022/09/16 21:31:22;;;;;;;5.65;3.65;;;;;;;;;;6247301;23;20083;-79
2022/09/16 21:33:50;;;;;;;6.30;3.35;;;;;;;;;;6247473;23;20015;-79
2022/09/16 21:36:17;;;;;;;6.03;3.15;;;;;;;;;;6247237;22;20008;-79
2022/09/16 21:38:42;;;;;;;3.10;2.80;;;;;;;;;;6220368;23;20485;-79
2022/09/16 21:41:13;;;;;;;4.55;2.80;;;;;;;;;;6220404;23;20004;-79
2022/09/16 21:43:49;;;;;;;3.30;3.00;;;;;;;;;;6247315;23;20000;-79
2022/09/16 21:46:18;;;;;;;4.32;2.78;;;;;;;;;;6247306;22;20004;-79
2022/09/16 21:48:44;;;;;;;3.65;2.72;;;;;;;;;;6195705;23;20327;-79
2022/09/16 21:51:12;;;;;;;2.75;2.40;;;;;;;;;;6247005;23;20016;-79
2022/09/16 21:53:42;;;;;;;4.97;3.10;;;;;;;;;;6247125;23;20083;-79
2022/09/16 21:56:13;;;;;;;3.85;2.88;;;;;;;;;;6247444;22;20075;-78
2022/09/16 21:58:39;;;;;;;3.30;2.88;;;;;;;;;;6220268;23;20066;-86
2022/09/16 22:01:07;;;;;;;3.25;2.83;;;;;;;;;;6247172;23;20000;-85
2022/09/16 22:03:33;;;;;;;3.45;2.47;;;;;;;;;;6247000;23;20004;-79
2022/09/16 22:05:59;;;;;;;6.78;3.03;;;;;;;;;;6246896;22;20000;-79
2022/09/16 22:08:24;;;;;;;3.70;2.88;;;;;;;;;;6247001;23;20094;-83
2022/09/16 22:10:50;;;;;;;4.88;3.10;;;;;;;;;;6247134;23;20036;-85
2022/09/16 22:13:15;;;;;;;4.10;3.08;;;;;;;;;;6246888;23;20442;-79
2022/09/16 22:15:51;;;;;;;4.00;3.00;;;;;;;;;;6246995;22;20004;-78
2022/09/16 22:18:16;;;;;;;3.03;2.55;;;;;;;;;;6246859;23;20435;-78
2022/09/16 22:20:42;;;;;;;3.58;2.75;;;;;;;;;;6219971;23;20000;-78
2022/09/16 22:23:07;;;;;;;3.85;2.60;;;;;;;;;;6247060;23;20007;-78
2022/09/16 22:25:36;;;;;;;2.78;2.58;;;;;;;;;;6246773;22;20010;-80
2022/09/16 22:28:02;;;;;;;2.90;2.70;;;;;;;;;;6246854;23;20066;-79
2022/09/16 22:30:29;;;;;;;2.80;2.25;;;;;;;;;;6219925;23;20035;-84
2022/09/16 22:32:54;;;;;;;3.60;2.85;;;;;;;;;;6246762;23;20468;-80
2022/09/16 22:35:20;;;;;;;3.00;2.47;;;;;;;;;;6246953;22;20036;-86
2022/09/16 22:37:47;;;;;;;4.53;2.40;;;;;;;;;;6246894;23;20035;-79
2022/09/16 22:40:13;;;;;;;4.78;2.80;;;;;;;;;;6246711;23;20004;-79
2022/09/16 22:42:38;;;;;;;3.13;2.90;;;;;;;;;;6246865;23;20332;-79
2022/09/16 22:45:04;;;;;;;3.35;3.00;;;;;;;;;;6246785;22;20015;-79
2022/09/16 22:47:30;;;;;;;3.17;2.78;;;;;;;;;;6246736;23;20008;-79
2022/09/16 22:49:55;;;;;;;3.85;2.63;;;;;;;;;;6246704;23;20447;-79
2022/09/16 22:52:21;;;;;;;4.13;2.78;;;;;;;;;;6246523;23;20007;-79
2022/09/16 22:54:46;;;;;;;4.85;3.00;;;;;;;;;;6219686;23;20008;-79
2022/09/16 22:57:11;;;;;;;2.85;2.50;;;;;;;;;;6246512;22;20026;-81
2022/09/16 22:59:37;;;;;;;2.95;2.60;;;;;;;;;;6246664;23;20441;-79
2022/09/16 23:02:02;;;;;;;2.92;2.42;;;;;;;;;;6246110;23;20066;-80
2022/09/16 23:04:28;;;;;;;4.88;2.67;;;;;;;;;;6246447;23;20051;-79
